Terminal Aerodrome Forecast
Issued by NWS Dodge City, KS

Home | Current Version | Previous Version | Graphics & Text | Print | Product List | Glossary Off
Versions: 1 2 3 4 5 6 7 8 9 10 11 12 13 14 15 16 17 18 19 20 21 22 23 24 25 26 27 28 29 30 31 32 33 34 35 36 37 38 39 40 41 42 43 44 45

161
FTUS43 KDDC 162322
TAFDDC
TAF
KDDC 162322Z 1700/1724 02010KT P6SM SKC
     FM170800 05007KT P6SM BKN050
     FM171000 05008KT P6SM OVC020
     FM171200 05010KT P6SM VCSH OVC015
     FM172000 09005KT P6SM BKN040=

USA.gov is the U.S. government's official web portal to all federal, state and local government web resources and services.